Higdonville, North Carolina
Current Conditions -  °F | °C
As of 5:35 PM on Wednesday 22 Oct 2014 (Local Time) from KRHP Reporting Station
Clear Clear  
Wind Chill: 59°   Ceiling: Unl
Heat Index: 59°   Visibility: 10mi
Dew Point: 39°   Wind: 10mph
Humidity: 47%   Direction: 360°N
Pressure: 30.11"   Gusts: 16mph
Location:  35.1737°N, 83.4215°W
Report Text: KRHP 222135Z AUTO 36009G14KT 10SM CLR 15/04 A3011 RMK AO2 T01500038
Loading
Personal Weather Stations






























Interactive Weather Map
Tropical Storm Tracking
New forecast layout! Learn more

10-Day Weather Forecast

Advertisements
Track Severe Weather on mobile